Time;durP1;ratioP1;P1;durP2;ratioP2;P2;SDS_P1;SDS_P2;PMS_P1;PMS_P2;Temp;Humidity;BMP_temperature;BMP_pressure;BME280_temperature;BME280_humidity;BME280_pressure;Samples;Min_cycle;Max_cycle;Signal;HPM_P1;HPM_P2
2021/07/07 00:00:51;;;;;;;5.47;1.10;;;19.80;97.00;;;;;;5131784;27;20484;-71
2021/07/07 00:03:17;;;;;;;3.40;1.00;;;19.80;96.80;;;;;;5132076;27;20027;-71
2021/07/07 00:05:43;;;;;;;3.33;1.17;;;19.70;97.00;;;;;;5131655;27;20118;-71
2021/07/07 00:08:08;;;;;;;4.07;1.20;;;19.70;96.90;;;;;;5131627;27;20035;-71
2021/07/07 00:10:35;;;;;;;3.47;1.40;;;19.70;96.50;;;;;;5131573;27;20059;-71
2021/07/07 00:13:02;;;;;;;4.18;1.20;;;19.60;97.20;;;;;;5131206;27;20028;-71
2021/07/07 00:15:31;;;;;;;6.63;1.47;;;19.60;97.30;;;;;;5132014;27;20015;-71
2021/07/07 00:17:58;;;;;;;2.65;1.08;;;19.50;97.20;;;;;;5131400;27;20140;-72
2021/07/07 00:20:24;;;;;;;6.22;1.42;;;19.40;97.30;;;;;;5131478;27;20057;-71
2021/07/07 00:22:49;;;;;;;7.20;1.27;;;19.30;97.60;;;;;;5130251;28;20039;-71
2021/07/07 00:25:16;;;;;;;5.13;1.17;;;19.30;97.50;;;;;;5130184;27;20114;-72
2021/07/07 00:27:41;;;;;;;5.28;1.52;;;19.30;97.80;;;;;;5131655;27;20048;-71
2021/07/07 00:30:08;;;;;;;8.75;1.83;;;19.30;98.00;;;;;;5131992;27;20027;-71
2021/07/07 00:32:33;;;;;;;2.22;0.80;;;19.20;98.10;;;;;;5131471;27;20042;-70
2021/07/07 00:34:59;;;;;;;4.97;1.13;;;19.30;98.20;;;;;;5131255;27;20028;-71
2021/07/07 00:37:25;;;;;;;2.58;1.13;;;19.20;98.20;;;;;;5131474;27;20041;-70
2021/07/07 00:39:51;;;;;;;5.53;1.10;;;19.20;98.20;;;;;;5131140;27;20113;-72
2021/07/07 00:42:16;;;;;;;2.78;0.75;;;19.10;98.30;;;;;;5130616;28;20043;-71
2021/07/07 00:44:42;;;;;;;8.13;1.45;;;19.10;98.40;;;;;;5130109;28;20446;-73
2021/07/07 00:47:08;;;;;;;3.47;1.35;;;19.00;98.40;;;;;;5130159;28;20114;-71
2021/07/07 00:49:34;;;;;;;3.08;1.00;;;19.00;98.60;;;;;;5131095;27;20038;-71
2021/07/07 00:52:02;;;;;;;3.13;1.05;;;18.90;98.60;;;;;;5134468;27;20023;-71
2021/07/07 00:54:29;;;;;;;;;;;18.90;98.70;;;;;;5135668;27;20505;-71
2021/07/07 00:56:55;;;;;;;4.95;0.95;;;19.00;98.60;;;;;;5134933;27;19918;-70
2021/07/07 00:59:22;;;;;;;1.42;0.90;;;18.90;98.60;;;;;;5133723;27;20072;-70
2021/07/07 01:01:49;;;;;;;3.53;1.02;;;18.90;98.70;;;;;;5134962;27;20334;-71
2021/07/07 01:04:14;;;;;;;4.13;0.93;;;18.90;98.80;;;;;;5134712;27;20672;-71
2021/07/07 01:06:40;;;;;;;2.83;0.77;;;18.90;98.80;;;;;;5134765;27;20023;-71
2021/07/07 01:09:06;;;;;;;1.27;0.90;;;18.90;98.90;;;;;;5135261;27;20019;-70
2021/07/07 01:11:33;;;;;;;1.98;0.95;;;18.90;99.00;;;;;;5134681;27;20038;-72
2021/07/07 01:13:59;;;;;;;4.57;0.60;;;18.90;99.00;;;;;;5134510;27;20051;-71
2021/07/07 01:16:25;;;;;;;4.53;0.80;;;18.90;99.00;;;;;;5134542;27;20078;-71
2021/07/07 01:18:51;;;;;;;3.50;0.98;;;18.90;99.00;;;;;;5134308;27;20031;-71
2021/07/07 01:21:18;;;;;;;2.03;0.93;;;18.90;99.00;;;;;;5135176;27;20033;-71
2021/07/07 01:23:43;;;;;;;2.00;0.77;;;18.90;99.10;;;;;;5134472;27;20039;-71
2021/07/07 01:26:09;;;;;;;4.25;0.88;;;18.90;99.20;;;;;;5134238;27;20103;-73
2021/07/07 01:28:34;;;;;;;2.55;0.90;;;18.80;99.30;;;;;;5134421;27;20472;-71
2021/07/07 01:31:03;;;;;;;2.58;0.70;;;18.80;99.40;;;;;;5134066;27;20031;-72
2021/07/07 01:33:29;;;;;;;4.45;0.90;;;18.80;99.60;;;;;;5133683;27;20305;-71
2021/07/07 01:35:54;;;;;;;4.00;1.05;;;18.80;99.70;;;;;;5133819;27;20031;-71
2021/07/07 01:38:20;;;;;;;1.90;0.90;;;18.70;99.90;;;;;;5133954;27;20079;-71
2021/07/07 01:40:46;;;;;;;2.67;0.82;;;18.70;99.70;;;;;;5134047;27;20039;-73
2021/07/07 01:43:11;;;;;;;2.47;1.02;;;18.70;99.90;;;;;;5134052;27;20576;-73
2021/07/07 01:45:37;;;;;;;1.83;0.90;;;18.70;99.80;;;;;;5133706;27;20160;-71
2021/07/07 01:48:03;;;;;;;3.47;0.90;;;18.60;99.90;;;;;;5134271;27;20019;-73
2021/07/07 01:50:29;;;;;;;2.40;0.73;;;18.50;99.90;;;;;;5133782;27;20472;-72
2021/07/07 01:52:56;;;;;;;2.63;0.82;;;18.60;99.90;;;;;;5133600;27;20031;-72
2021/07/07 01:55:22;;;;;;;6.50;1.00;;;18.60;99.90;;;;;;5133809;27;20062;-72
2021/07/07 01:57:48;;;;;;;1.30;0.90;;;18.60;99.90;;;;;;5133609;27;20030;-72
2021/07/07 02:00:24;;;;;;;3.55;1.20;;;18.60;99.90;;;;;;5134341;27;20118;-72
2021/07/07 02:02:52;;;;;;;2.53;0.90;;;18.60;99.90;;;;;;5133236;27;20027;-72
2021/07/07 02:05:24;;;;;;;3.25;1.25;;;18.60;99.90;;;;;;5132611;27;20031;-72
2021/07/07 02:07:50;;;;;;;4.03;1.30;;;18.50;99.90;;;;;;5133592;27;20030;-72
2021/07/07 02:10:16;;;;;;;4.55;1.10;;;18.60;99.90;;;;;;5133610;27;20023;-71
2021/07/07 02:12:42;;;;;;;2.28;0.90;;;18.60;99.90;;;;;;5133439;27;20034;-72
2021/07/07 02:15:10;;;;;;;2.35;1.20;;;18.50;99.90;;;;;;5133841;27;20015;-72
2021/07/07 02:17:37;;;;;;;4.53;1.23;;;18.50;99.90;;;;;;5133467;27;20023;-71
2021/07/07 02:20:07;;;;;;;3.42;1.20;;;18.50;99.90;;;;;;5132177;27;20148;-71
2021/07/07 02:22:32;;;;;;;1.80;0.95;;;18.40;99.90;;;;;;5133138;27;20042;-72
2021/07/07 02:24:58;;;;;;;2.35;1.10;;;18.40;99.90;;;;;;5132902;27;20381;-71
2021/07/07 02:27:24;;;;;;;3.38;1.08;;;18.40;99.90;;;;;;5133553;27;20089;-72
2021/07/07 02:29:49;;;;;;;1.95;0.90;;;18.50;99.90;;;;;;5133103;27;20096;-72
2021/07/07 02:32:15;;;;;;;4.65;1.38;;;18.50;99.90;;;;;;5133186;27;20024;-72
2021/07/07 02:34:40;;;;;;;3.65;0.80;;;18.40;99.90;;;;;;5133195;27;20031;-71
2021/07/07 02:37:06;;;;;;;4.90;1.10;;;18.40;99.90;;;;;;5133070;27;20023;-72
2021/07/07 02:39:32;;;;;;;4.03;1.10;;;18.40;99.90;;;;;;5132742;27;20051;-71
2021/07/07 02:41:57;;;;;;;1.67;0.90;;;18.40;99.90;;;;;;5133081;27;20072;-72
2021/07/07 02:44:23;;;;;;;2.85;1.00;;;18.40;99.90;;;;;;5133052;27;20024;-71
2021/07/07 02:46:48;;;;;;;4.70;1.08;;;18.40;99.90;;;;;;5132791;27;20046;-71
2021/07/07 02:49:14;;;;;;;6.03;1.40;;;18.40;99.90;;;;;;5132598;27;20031;-71
2021/07/07 02:51:39;;;;;;;0.90;0.77;;;18.40;99.90;;;;;;5132641;27;20487;-72
2021/07/07 02:54:05;;;;;;;4.13;1.10;;;18.30;99.90;;;;;;5133245;27;20023;-72
2021/07/07 02:56:31;;;;;;;4.63;1.25;;;18.30;99.90;;;;;;5132615;27;20457;-71
2021/07/07 02:58:56;;;;;;;1.52;0.93;;;18.30;99.90;;;;;;5132582;27;20047;-72
2021/07/07 03:01:22;;;;;;;2.65;0.90;;;18.30;99.90;;;;;;5132892;27;20030;-72
2021/07/07 03:03:47;;;;;;;7.03;1.05;;;18.30;99.90;;;;;;5132265;27;20038;-71
2021/07/07 03:06:13;;;;;;;6.22;1.33;;;18.40;99.90;;;;;;5132950;27;20463;-72
2021/07/07 03:08:43;;;;;;;7.70;1.08;;;18.40;99.90;;;;;;5132599;27;20034;-72
2021/07/07 03:11:09;;;;;;;2.72;1.10;;;18.30;99.90;;;;;;5132238;27;20118;-71
2021/07/07 03:13:35;;;;;;;3.85;1.20;;;18.30;99.90;;;;;;5131266;27;20027;-73
2021/07/07 03:16:02;;;;;;;1.48;0.80;;;18.30;99.90;;;;;;5132294;27;20028;-71
2021/07/07 03:18:28;;;;;;;7.43;1.20;;;18.30;99.90;;;;;;5131790;27;20027;-72
2021/07/07 03:20:54;;;;;;;7.10;1.60;;;18.30;99.90;;;;;;5131038;27;20169;-71
2021/07/07 03:23:21;;;;;;;2.97;1.25;;;18.30;99.90;;;;;;5131026;27;20024;-71
2021/07/07 03:25:49;;;;;;;5.80;1.92;;;18.30;99.90;;;;;;5132018;27;20380;-71
2021/07/07 03:28:16;;;;;;;5.03;1.00;;;18.30;99.90;;;;;;5132353;27;20031;-71
2021/07/07 03:30:42;;;;;;;5.55;1.33;;;18.30;99.90;;;;;;5132082;27;20015;-72
2021/07/07 03:33:07;;;;;;;4.47;1.05;;;18.30;99.90;;;;;;5132427;27;20084;-73
2021/07/07 03:35:33;;;;;;;3.00;1.35;;;18.30;99.90;;;;;;5132186;27;20060;-73
2021/07/07 03:37:59;;;;;;;1.33;0.90;;;18.30;99.90;;;;;;5131913;27;20083;-72
2021/07/07 03:40:26;;;;;;;15.98;2.83;;;18.30;99.90;;;;;;5131717;27;20050;-73
2021/07/07 03:42:52;;;;;;;5.80;1.53;;;18.30;99.90;;;;;;5131631;27;20031;-71
2021/07/07 03:45:19;;;;;;;5.28;1.50;;;18.20;99.90;;;;;;5131886;27;20030;-73
2021/07/07 03:47:45;;;;;;;4.28;1.60;;;18.20;99.90;;;;;;5132055;27;20437;-71
2021/07/07 03:50:12;;;;;;;1.67;0.93;;;18.10;99.90;;;;;;5130659;27;20035;-71
2021/07/07 03:52:40;;;;;;;4.05;1.00;;;18.10;99.90;;;;;;5131889;27;20042;-72
2021/07/07 03:55:11;;;;;;;5.43;1.02;;;18.10;99.90;;;;;;5131853;27;20031;-72
2021/07/07 03:57:36;;;;;;;4.88;1.10;;;18.10;99.90;;;;;;5131632;27;20039;-73
2021/07/07 04:00:08;;;;;;;1.30;0.85;;;18.00;99.90;;;;;;5132131;27;20103;-72
2021/07/07 04:02:34;;;;;;;2.33;1.30;;;18.00;99.90;;;;;;5131578;27;20020;-72
2021/07/07 04:04:59;;;;;;;8.05;1.40;;;18.00;99.90;;;;;;5131502;27;20023;-73
2021/07/07 04:07:25;;;;;;;2.22;1.17;;;18.00;99.90;;;;;;5131537;27;20057;-72
2021/07/07 04:09:50;;;;;;;1.73;0.90;;;18.00;99.90;;;;;;5130534;27;20035;-71
2021/07/07 04:12:17;;;;;;;2.03;1.10;;;18.00;99.90;;;;;;5131701;27;20110;-71
2021/07/07 04:14:42;;;;;;;3.05;1.02;;;17.90;99.90;;;;;;5130683;27;20039;-72
2021/07/07 04:17:08;;;;;;;3.03;1.08;;;17.90;99.90;;;;;;5131623;27;20034;-71
2021/07/07 04:19:34;;;;;;;6.78;1.23;;;18.00;99.90;;;;;;5131655;27;20031;-71
2021/07/07 04:22:00;;;;;;;4.97;1.48;;;18.00;99.90;;;;;;5113332;28;20065;-73
2021/07/07 04:24:26;;;;;;;6.90;1.25;;;18.00;99.90;;;;;;5132771;27;20054;-71
2021/07/07 04:26:51;;;;;;;4.15;1.42;;;18.10;99.90;;;;;;5135649;27;20099;-71
2021/07/07 04:29:17;;;;;;;2.17;1.13;;;18.20;99.90;;;;;;5134209;27;20035;-71
2021/07/07 04:31:43;;;;;;;6.85;1.60;;;18.10;99.90;;;;;;5135406;27;20023;-71
2021/07/07 04:34:08;;;;;;;2.55;1.30;;;18.10;99.90;;;;;;5135231;27;20041;-72
2021/07/07 04:36:35;;;;;;;6.13;0.98;;;18.10;99.90;;;;;;5135135;27;20080;-72
2021/07/07 04:39:04;;;;;;;4.70;1.27;;;18.10;99.90;;;;;;5135401;27;20099;-71
2021/07/07 04:41:29;;;;;;;1.98;1.05;;;18.10;99.90;;;;;;5135078;27;20119;-72
2021/07/07 04:43:55;;;;;;;3.78;1.02;;;18.10;99.90;;;;;;5134941;27;20047;-72
2021/07/07 04:46:21;;;;;;;6.00;1.52;;;18.10;99.90;;;;;;5135167;27;20039;-72
2021/07/07 04:48:46;;;;;;;4.47;1.13;;;18.20;99.90;;;;;;5135073;27;20449;-72
2021/07/07 04:51:12;;;;;;;8.25;1.50;;;18.20;99.90;;;;;;5135324;27;20042;-71
2021/07/07 04:53:39;;;;;;;4.53;1.20;;;18.20;99.90;;;;;;5135081;27;20034;-72
2021/07/07 04:56:04;;;;;;;3.70;1.55;;;18.20;99.90;;;;;;5135218;27;20038;-73
2021/07/07 04:58:30;;;;;;;2.88;1.23;;;18.20;99.90;;;;;;5133921;27;20456;-72
2021/07/07 05:00:56;;;;;;;9.63;1.30;;;18.20;99.90;;;;;;5133651;27;20380;-73
2021/07/07 05:03:21;;;;;;;2.05;1.15;;;18.20;99.90;;;;;;5135050;27;20092;-73
2021/07/07 05:05:47;;;;;;;3.22;1.10;;;18.30;99.90;;;;;;5134514;27;20462;-72
2021/07/07 05:08:12;;;;;;;4.28;1.33;;;18.10;99.90;;;;;;5134535;27;20031;-72
2021/07/07 05:10:38;;;;;;;1.88;0.90;;;18.20;99.90;;;;;;5133713;27;20371;-74
2021/07/07 05:13:05;;;;;;;1.15;0.85;;;18.20;99.90;;;;;;5134246;27;20035;-72
2021/07/07 05:15:32;;;;;;;2.65;1.10;;;18.30;99.90;;;;;;5134606;27;20094;-72
2021/07/07 05:17:58;;;;;;;3.58;1.05;;;18.20;99.90;;;;;;5134914;27;20693;-73
2021/07/07 05:20:24;;;;;;;2.22;1.05;;;18.30;99.90;;;;;;5134652;27;20031;-72
2021/07/07 05:22:49;;;;;;;3.33;1.08;;;18.30;99.90;;;;;;5133335;27;20033;-71
2021/07/07 05:25:16;;;;;;;3.13;1.25;;;18.30;99.90;;;;;;5134358;27;20031;-70
2021/07/07 05:27:43;;;;;;;4.68;1.25;;;18.20;99.90;;;;;;5133221;27;20410;-70
2021/07/07 05:30:09;;;;;;;4.93;1.60;;;18.30;99.90;;;;;;5134588;27;20052;-75
2021/07/07 05:32:35;;;;;;;3.83;1.05;;;18.30;99.90;;;;;;5134217;27;20049;-71
2021/07/07 05:35:02;;;;;;;4.05;1.13;;;18.30;99.90;;;;;;5133996;27;20408;-69
2021/07/07 05:37:28;;;;;;;5.70;1.35;;;18.30;99.90;;;;;;5133341;27;20042;-70
2021/07/07 05:39:54;;;;;;;8.43;1.15;;;18.30;99.90;;;;;;5133826;27;20031;-70
2021/07/07 05:42:21;;;;;;;3.72;1.05;;;18.30;99.90;;;;;;5133498;27;20389;-71
2021/07/07 05:44:48;;;;;;;3.28;1.60;;;18.40;99.90;;;;;;5132405;27;20096;-71
2021/07/07 05:47:14;;;;;;;8.48;1.83;;;18.40;99.90;;;;;;5132993;27;20035;-69
2021/07/07 05:49:41;;;;;;;8.60;1.48;;;18.40;99.90;;;;;;5133861;27;20042;-69
2021/07/07 05:52:07;;;;;;;5.97;1.33;;;18.40;99.90;;;;;;5133872;27;20127;-71
2021/07/07 05:54:32;;;;;;;7.50;1.40;;;18.50;99.90;;;;;;5123999;27;20103;-71
2021/07/07 05:56:59;;;;;;;5.35;1.60;;;18.50;99.90;;;;;;5113536;28;20020;-70
2021/07/07 05:59:24;;;;;;;7.00;1.40;;;18.50;99.90;;;;;;5113246;28;20092;-70
2021/07/07 06:01:50;;;;;;;2.97;1.33;;;18.60;99.90;;;;;;5112870;28;20375;-69
2021/07/07 06:04:15;;;;;;;4.80;1.30;;;18.60;99.90;;;;;;5112964;28;20119;-71
2021/07/07 06:06:41;;;;;;;3.15;0.98;;;18.60;99.90;;;;;;5112769;27;20111;-70
2021/07/07 06:09:07;;;;;;;5.78;1.73;;;18.60;99.90;;;;;;5113248;28;20365;-69
2021/07/07 06:11:32;;;;;;;3.63;1.10;;;18.60;99.90;;;;;;5112663;28;20027;-71
2021/07/07 06:13:58;;;;;;;7.68;1.10;;;18.60;99.90;;;;;;5112857;28;20116;-70
2021/07/07 06:16:23;;;;;;;3.90;1.15;;;18.70;99.90;;;;;;5112540;28;20368;-71
2021/07/07 06:18:50;;;;;;;2.75;1.23;;;18.70;99.90;;;;;;5111767;28;20027;-71
2021/07/07 06:21:16;;;;;;;9.27;1.65;;;18.70;99.90;;;;;;5113223;28;20031;-70
2021/07/07 06:23:41;;;;;;;6.60;1.10;;;18.70;99.90;;;;;;5113127;28;20107;-70
2021/07/07 06:26:07;;;;;;;7.35;1.20;;;18.70;99.90;;;;;;5112742;28;20127;-71
2021/07/07 06:28:32;;;;;;;2.83;1.20;;;18.80;99.90;;;;;;5112528;28;20114;-70
2021/07/07 06:30:58;;;;;;;5.65;1.50;;;18.80;99.90;;;;;;5111320;28;20080;-70
2021/07/07 06:33:23;;;;;;;2.28;1.35;;;18.90;99.90;;;;;;5113038;28;20027;-70
2021/07/07 06:35:49;;;;;;;6.20;1.33;;;18.90;99.90;;;;;;5112666;28;20042;-71
2021/07/07 06:38:15;;;;;;;8.05;1.30;;;19.00;99.90;;;;;;5112388;28;20039;-70
2021/07/07 06:40:41;;;;;;;15.82;4.78;;;19.10;99.90;;;;;;5111933;28;20044;-72
2021/07/07 06:43:07;;;;;;;10.60;4.05;;;19.20;99.90;;;;;;5112103;28;20031;-70
2021/07/07 06:45:36;;;;;;;7.30;2.00;;;19.20;99.90;;;;;;5112124;28;20356;-72
2021/07/07 06:48:06;;;;;;;6.13;2.25;;;19.30;99.90;;;;;;5111372;28;20016;-74
2021/07/07 06:50:32;;;;;;;10.25;2.40;;;19.40;99.90;;;;;;5112353;28;20024;-71
2021/07/07 06:52:58;;;;;;;7.25;1.70;;;19.40;99.90;;;;;;5111918;27;20039;-70
2021/07/07 06:55:23;;;;;;;5.65;1.80;;;19.40;99.60;;;;;;5112361;28;20103;-70
2021/07/07 06:57:49;;;;;;;3.95;1.83;;;19.60;99.70;;;;;;5112305;28;20019;-70
2021/07/07 07:00:17;;;;;;;5.70;2.10;;;19.70;99.50;;;;;;5111777;28;20395;-71
2021/07/07 07:02:43;;;;;;;6.47;2.55;;;19.70;99.30;;;;;;5112580;28;20023;-70
2021/07/07 07:05:11;;;;;;;6.95;1.42;;;19.70;99.10;;;;;;5110928;28;20092;-70
2021/07/07 07:07:37;;;;;;;8.20;1.52;;;19.70;99.10;;;;;;5112040;28;20028;-72
2021/07/07 07:10:07;;;;;;;3.95;1.10;;;19.70;99.20;;;;;;5110750;28;20436;-70
2021/07/07 07:12:35;;;;;;;8.38;1.27;;;19.70;99.40;;;;;;5111956;28;20015;-71
2021/07/07 07:15:03;;;;;;;7.93;1.70;;;19.80;99.30;;;;;;5110997;28;20024;-70
2021/07/07 07:17:28;;;;;;;4.10;1.10;;;19.80;99.30;;;;;;5110554;28;20030;-71
2021/07/07 07:19:54;;;;;;;8.52;3.83;;;19.90;99.30;;;;;;5111625;28;20024;-69
2021/07/07 07:22:20;;;;;;;10.35;5.88;;;20.00;99.20;;;;;;5111731;28;20028;-71
2021/07/07 07:24:47;;;;;;;5.43;3.13;;;19.90;99.10;;;;;;5111761;28;20023;-71
2021/07/07 07:27:12;;;;;;;4.07;0.98;;;20.00;99.10;;;;;;5111987;28;20027;-69
2021/07/07 07:29:40;;;;;;;4.45;1.20;;;20.00;98.90;;;;;;5111482;28;20028;-70
2021/07/07 07:32:06;;;;;;;2.88;1.17;;;20.00;98.90;;;;;;5111393;28;20035;-71
2021/07/07 07:34:32;;;;;;;5.03;1.73;;;20.00;99.10;;;;;;5111220;28;20519;-70
2021/07/07 07:37:00;;;;;;;7.60;1.73;;;20.00;99.30;;;;;;5111150;28;20115;-71
2021/07/07 07:39:27;;;;;;;5.47;1.20;;;20.00;99.30;;;;;;5110453;28;20051;-71
2021/07/07 07:41:53;;;;;;;4.57;1.05;;;20.00;99.40;;;;;;5111325;28;20028;-70
2021/07/07 07:44:19;;;;;;;7.32;1.27;;;20.20;99.20;;;;;;5111349;28;20096;-69
2021/07/07 07:46:45;;;;;;;7.00;1.27;;;20.20;99.10;;;;;;5111281;28;20040;-70
2021/07/07 07:49:13;;;;;;;4.85;1.13;;;20.20;99.10;;;;;;5111427;28;20024;-71
2021/07/07 07:51:39;;;;;;;;;;;20.30;99.00;;;;;;5111579;28;20027;-71
2021/07/07 07:54:05;;;;;;;9.18;1.30;;;20.30;99.00;;;;;;5111673;28;19906;-71
2021/07/07 07:56:30;;;;;;;4.35;1.30;;;20.40;98.90;;;;;;5111043;28;20466;-72
2021/07/07 07:58:56;;;;;;;3.72;1.10;;;20.50;99.00;;;;;;5110687;28;20097;-72
2021/07/07 08:01:24;;;;;;;5.32;1.15;;;20.70;99.10;;;;;;5111026;28;20039;-73
2021/07/07 08:03:49;;;;;;;7.20;1.35;;;20.80;98.60;;;;;;5110922;28;20031;-69
2021/07/07 08:06:15;;;;;;;9.82;1.35;;;21.00;98.20;;;;;;5110744;28;20072;-71
2021/07/07 08:08:40;;;;;;;5.90;1.98;;;21.10;98.10;;;;;;5111064;28;20100;-69
2021/07/07 08:11:06;;;;;;;8.70;2.90;;;21.30;97.70;;;;;;5111101;28;20051;-71
2021/07/07 08:13:32;;;;;;;8.07;2.50;;;21.60;97.60;;;;;;5111169;28;20096;-69
2021/07/07 08:15:58;;;;;;;3.08;1.23;;;21.90;97.10;;;;;;5110800;28;20028;-71
2021/07/07 08:18:23;;;;;;;7.20;3.15;;;22.20;96.40;;;;;;5111438;28;20016;-71
2021/07/07 08:20:49;;;;;;;6.72;3.08;;;22.40;96.60;;;;;;5110723;28;20024;-72
2021/07/07 08:23:14;;;;;;;6.95;2.70;;;22.70;96.10;;;;;;5111065;28;20062;-70
2021/07/07 08:25:40;;;;;;;2.65;1.13;;;23.10;95.80;;;;;;5110949;28;20473;-72
2021/07/07 08:28:06;;;;;;;9.02;1.42;;;23.50;95.10;;;;;;5111044;28;20028;-70
2021/07/07 08:30:31;;;;;;;6.07;1.25;;;23.80;94.20;;;;;;5110079;28;20011;-70
2021/07/07 08:32:57;;;;;;;7.88;1.30;;;24.30;93.80;;;;;;5111246;28;20047;-69
2021/07/07 08:35:22;;;;;;;5.15;1.50;;;25.20;92.80;;;;;;5110958;28;20032;-72
2021/07/07 08:37:48;;;;;;;7.07;1.15;;;26.20;92.10;;;;;;5111104;28;20066;-72
2021/07/07 08:40:15;;;;;;;6.15;1.20;;;27.10;91.40;;;;;;5110673;28;20043;-71
2021/07/07 08:42:42;;;;;;;8.75;1.00;;;27.80;89.00;;;;;;5110823;28;20016;-71
2021/07/07 08:45:13;;;;;;;5.35;1.20;;;28.30;86.80;;;;;;5111250;28;20022;-72
2021/07/07 08:47:42;;;;;;;5.43;1.00;;;28.70;85.60;;;;;;5110836;28;20134;-71
2021/07/07 08:50:16;;;;;;;5.25;0.93;;;29.20;83.30;;;;;;5109610;28;20032;-72
2021/07/07 08:52:42;;;;;;;1.90;0.93;;;28.80;81.70;;;;;;5110440;28;20042;-70
2021/07/07 08:55:10;;;;;;;5.65;1.40;;;28.70;83.50;;;;;;5110663;28;20027;-71
2021/07/07 08:57:43;;;;;;;10.55;4.35;;;28.60;81.70;;;;;;5110637;28;20028;-72
2021/07/07 09:00:16;;;;;;;5.00;1.70;;;28.40;81.70;;;;;;5111321;28;20020;-71
2021/07/07 09:02:56;;;;;;;4.07;1.20;;;28.10;81.40;;;;;;5108794;28;20028;-72
2021/07/07 09:05:23;;;;;;;4.43;1.05;;;28.10;82.20;;;;;;5110100;28;20031;-71
2021/07/07 09:07:49;;;;;;;5.00;1.23;;;28.00;82.40;;;;;;5110425;28;20101;-72
2021/07/07 09:10:17;;;;;;;6.22;1.55;;;27.70;81.40;;;;;;5110600;28;20049;-71
2021/07/07 09:12:44;;;;;;;7.25;1.10;;;28.30;79.40;;;;;;5113292;27;20040;-72
2021/07/07 09:15:13;;;;;;;5.80;1.08;;;28.60;79.00;;;;;;5114208;28;20016;-71
2021/07/07 09:17:48;;;;;;;7.35;1.35;;;29.30;78.80;;;;;;5113882;28;20028;-70
2021/07/07 09:20:33;;;;;;;2.75;1.30;;;29.80;75.80;;;;;;5114136;28;20032;-72
2021/07/07 09:23:22;;;;;;;5.90;1.58;;;29.80;73.20;;;;;;5113969;28;20075;-70
2021/07/07 09:26:06;;;;;;;5.97;1.08;;;29.50;71.70;;;;;;5113879;28;20045;-71
2021/07/07 09:28:37;;;;;;;7.10;1.33;;;29.30;73.70;;;;;;5113731;28;20111;-70
2021/07/07 09:31:05;;;;;;;3.95;1.02;;;29.00;72.70;;;;;;5113793;28;20124;-71
2021/07/07 09:33:42;;;;;;;7.32;1.60;;;29.00;74.50;;;;;;5113693;28;20046;-71
2021/07/07 09:36:28;;;;;;;5.25;1.20;;;28.80;74.10;;;;;;5114710;27;20024;-70
2021/07/07 09:38:54;;;;;;;7.00;1.10;;;28.70;70.60;;;;;;5113326;28;20059;-72
2021/07/07 09:41:20;;;;;;;6.03;1.20;;;28.40;72.10;;;;;;5113383;28;20023;-72
2021/07/07 09:43:51;;;;;;;15.60;1.60;;;28.30;69.80;;;;;;5112278;28;20035;-72
2021/07/07 09:46:18;;;;;;;6.10;1.25;;;28.00;68.20;;;;;;5113479;28;20035;-72
2021/07/07 09:48:45;;;;;;;3.70;1.30;;;28.10;69.80;;;;;;5113348;28;20081;-70
2021/07/07 09:51:11;;;;;;;8.45;1.17;;;28.00;69.70;;;;;;5113861;28;20521;-71
2021/07/07 09:53:37;;;;;;;9.18;1.67;;;27.70;68.80;;;;;;5112713;28;20122;-71
2021/07/07 09:56:03;;;;;;;6.78;1.27;;;27.70;67.80;;;;;;5113724;28;20039;-72
2021/07/07 09:58:29;;;;;;;5.55;2.15;;;27.50;67.80;;;;;;5113650;28;20066;-71
2021/07/07 10:00:55;;;;;;;4.50;1.23;;;27.30;67.20;;;;;;5113013;27;20039;-71
2021/07/07 10:03:20;;;;;;;5.47;1.25;;;27.40;69.30;;;;;;5113714;28;20468;-71
2021/07/07 10:05:47;;;;;;;8.20;1.35;;;27.40;67.10;;;;;;5112870;28;20051;-70
2021/07/07 10:08:14;;;;;;;5.15;1.15;;;27.30;66.80;;;;;;5111817;28;20057;-71
2021/07/07 10:10:41;;;;;;;4.72;1.20;;;27.20;68.60;;;;;;5111917;28;20035;-71
2021/07/07 10:13:09;;;;;;;4.13;1.30;;;27.30;68.40;;;;;;5112883;28;20047;-72
2021/07/07 10:15:35;;;;;;;6.10;1.33;;;27.00;68.10;;;;;;5112749;28;20028;-71
2021/07/07 10:18:02;;;;;;;3.83;1.20;;;26.90;69.10;;;;;;5113482;28;20084;-70
2021/07/07 10:20:28;;;;;;;4.80;1.40;;;26.80;70.70;;;;;;5112630;28;20032;-70
2021/07/07 10:22:55;;;;;;;8.07;1.17;;;26.80;70.10;;;;;;5112207;28;20346;-70
2021/07/07 10:25:24;;;;;;;6.03;1.77;;;26.70;69.10;;;;;;5112847;28;20040;-71
2021/07/07 10:27:51;;;;;;;5.78;1.33;;;26.80;69.60;;;;;;5112505;27;20024;-70
2021/07/07 10:30:19;;;;;;;11.68;4.15;;;26.80;67.40;;;;;;5112302;28;20027;-71
2021/07/07 10:33:09;;;;;;;9.80;2.17;;;26.70;67.50;;;;;;5112435;27;20059;-77
2021/07/07 10:35:35;;;;;;;5.03;1.05;;;26.70;67.10;;;;;;5112328;28;20338;-77
2021/07/07 10:38:05;;;;;;;6.78;1.30;;;26.80;66.50;;;;;;5112542;28;20327;-69
2021/07/07 10:40:34;;;;;;;5.03;1.67;;;26.80;65.50;;;;;;5111832;28;20043;-70
2021/07/07 10:43:00;;;;;;;5.40;1.23;;;27.00;66.40;;;;;;5112060;27;20119;-70
2021/07/07 10:45:41;;;;;;;6.68;1.40;;;27.20;66.20;;;;;;5112342;28;20604;-70
2021/07/07 10:48:27;;;;;;;6.90;1.60;;;27.20;66.40;;;;;;5112636;28;20507;-70
2021/07/07 10:50:58;;;;;;;5.38;1.20;;;27.10;65.70;;;;;;5111952;28;20448;-71
2021/07/07 10:53:27;;;;;;;8.10;1.40;;;27.10;65.90;;;;;;5112068;28;20458;-70
2021/07/07 10:55:53;;;;;;;6.47;1.27;;;26.90;64.60;;;;;;5112015;28;20043;-72
2021/07/07 10:58:23;;;;;;;10.85;2.13;;;26.90;65.10;;;;;;5111782;28;20028;-69
2021/07/07 11:00:49;;;;;;;5.80;1.10;;;26.80;62.70;;;;;;5112053;28;20476;-71
2021/07/07 11:03:31;;;;;;;4.30;1.08;;;26.70;62.20;;;;;;5111123;28;20058;-70
2021/07/07 11:06:16;;;;;;;4.80;1.30;;;26.60;62.80;;;;;;5111650;28;20663;-70
2021/07/07 11:08:42;;;;;;;7.05;1.92;;;26.50;61.40;;;;;;5111646;28;20051;-70
2021/07/07 11:11:23;;;;;;;6.00;1.70;;;26.40;63.00;;;;;;5111907;28;20082;-70
2021/07/07 11:13:51;;;;;;;5.43;1.27;;;26.40;63.00;;;;;;5111736;28;20032;-72
2021/07/07 11:16:22;;;;;;;7.68;1.23;;;26.50;64.80;;;;;;5111371;28;20035;-70
2021/07/07 11:18:49;;;;;;;7.55;1.33;;;26.60;64.70;;;;;;5111765;28;20051;-68
2021/07/07 11:21:14;;;;;;;4.65;0.88;;;26.70;64.80;;;;;;5112812;28;20257;-71
2021/07/07 11:23:40;;;;;;;6.40;1.17;;;26.50;63.70;;;;;;5111707;28;20024;-71
2021/07/07 11:26:10;;;;;;;6.93;1.42;;;26.30;63.00;;;;;;5111438;28;20035;-70
2021/07/07 11:28:36;;;;;;;7.35;1.25;;;26.30;65.40;;;;;;5110623;28;20031;-69
2021/07/07 11:31:02;;;;;;;2.00;0.70;;;26.10;62.60;;;;;;5110066;28;20055;-68
2021/07/07 11:33:28;;;;;;;4.18;1.25;;;26.10;62.70;;;;;;5111771;28;20101;-70
2021/07/07 11:35:54;;;;;;;5.07;1.10;;;26.30;62.40;;;;;;5111071;28;20028;-69
2021/07/07 11:38:26;;;;;;;5.78;1.30;;;26.30;63.10;;;;;;5111584;28;20036;-69
2021/07/07 11:40:53;;;;;;;3.47;1.08;;;26.30;63.50;;;;;;5111089;28;20135;-69
2021/07/07 11:43:24;;;;;;;4.40;1.05;;;26.30;62.70;;;;;;5111542;28;20123;-69
2021/07/07 11:46:07;;;;;;;3.08;1.10;;;26.30;63.90;;;;;;5110392;28;20039;-69
2021/07/07 11:48:37;;;;;;;8.05;1.30;;;26.50;63.20;;;;;;5111240;28;20112;-70
2021/07/07 11:51:13;;;;;;;4.60;1.40;;;26.50;62.60;;;;;;5111437;28;20373;-69
2021/07/07 11:53:47;;;;;;;6.25;1.38;;;26.50;61.90;;;;;;5110248;28;20065;-70
2021/07/07 11:56:17;;;;;;;6.40;1.52;;;26.50;61.90;;;;;;5111388;28;20046;-69
2021/07/07 11:59:04;;;;;;;6.68;1.48;;;26.50;61.40;;;;;;5110173;28;20455;-69
2021/07/07 12:01:31;;;;;;;;;;;26.50;62.20;;;;;;5111491;28;20027;-69
2021/07/07 12:03:58;;;;;;;7.50;1.08;;;26.40;62.20;;;;;;5111126;28;19908;-70
2021/07/07 12:06:33;;;;;;;4.70;1.08;;;26.30;62.40;;;;;;5111778;28;20023;-70
2021/07/07 12:09:03;;;;;;;4.75;1.20;;;26.20;62.50;;;;;;5111544;28;20467;-70
2021/07/07 12:11:30;;;;;;;5.40;1.13;;;26.20;62.50;;;;;;5111382;28;20043;-70
2021/07/07 12:13:57;;;;;;;6.30;1.60;;;26.10;62.00;;;;;;5111202;28;20027;-70
2021/07/07 12:16:33;;;;;;;7.20;1.58;;;26.20;63.60;;;;;;5109836;28;20032;-69
2021/07/07 12:19:11;;;;;;;4.60;0.90;;;26.20;63.30;;;;;;5110978;28;20062;-69
2021/07/07 12:21:58;;;;;;;4.50;1.33;;;26.20;62.70;;;;;;5111403;28;20034;-69
2021/07/07 12:24:30;;;;;;;8.55;1.60;;;26.10;64.00;;;;;;5111472;28;20449;-70
2021/07/07 12:26:57;;;;;;;12.38;1.92;;;26.20;64.10;;;;;;5111276;28;20047;-71
2021/07/07 12:29:29;;;;;;;7.60;1.98;;;26.20;65.60;;;;;;5109591;28;20364;-72
2021/07/07 12:32:03;;;;;;;5.47;1.27;;;26.20;67.20;;;;;;5110890;28;20032;-69
2021/07/07 12:34:32;;;;;;;5.60;1.25;;;26.10;66.80;;;;;;5111136;28;20027;-70
2021/07/07 12:36:59;;;;;;;3.00;1.10;;;26.10;67.10;;;;;;5111107;28;20024;-70
2021/07/07 12:39:31;;;;;;;5.25;1.33;;;26.10;66.60;;;;;;5111090;28;20032;-69
2021/07/07 12:42:02;;;;;;;1.33;0.73;;;26.10;66.90;;;;;;5111069;28;20040;-69
2021/07/07 12:44:34;;;;;;;21.33;9.90;;;26.00;65.50;;;;;;5111080;28;20028;-70
2021/07/07 12:47:04;;;;;;;7.28;2.58;;;26.00;65.90;;;;;;5113383;28;20028;-69
2021/07/07 12:49:41;;;;;;;2.22;0.82;;;25.90;66.60;;;;;;5114708;28;20399;-69